Terminal Aerodrome Forecast
Issued by NWS

Home | Current Version | Previous Version | Text Only | Print | Product List | Glossary On
Versions: 1 2 3 4 5 6 7 8 9 10 11 12 13 14 15 16
000
FTUS43 KIND 011000 AAA
TAFLAF
TAF AMD
KLAF 011011Z 0110/0206 11007KT 3SM -SN BR BKN015 OVC030
     FM011600 10011KT 1/2SM SN VV004
     FM012200 08010KT 1SM -SN BR OVC005
     FM020200 36014G21KT 1 1/2SM -SN OVC007
      AMD LTD TO CLD VIS AND WIND TIL 011400=

USA.gov is the U.S. government's official web portal to all federal, state and local government web resources and services.